WetterOnline ( https://www.wetteronline.de )

Wetter aktuell Roßlaich

Aktuelles Wetter: Hohenpeißenberg (986m)

6-stündlich | Neueste Meldungen
Ortszeit Temperatur Wetter
So, 26.05. 2:00 8.5° C leichter Regen
Sa, 25.05. 20:00 9.6° C leichter Regen
Sa, 25.05. 14:00 15.9° C bewölkt
Sa, 25.05. 8:00 12.2° C leicht bewölkt
Sa, 25.05. 2:00 13.3° C leicht bewölkt
Fr, 24.05. 20:00 15.2° C bedeckt
Fr, 24.05. 14:00 17.0° C wolkenlos
Fr, 24.05. 8:00 12.8° C wolkenlos
Ortszeit Temperatur Wetter
So, 26.05. 2:30 8.6° C Sprühregen
So, 26.05. 2:20 8.6° C Sprühregen
So, 26.05. 2:10 8.5° C Sprühregen
So, 26.05. 2:00 8.5° C leichter Regen
So, 26.05. 1:40 8.6° C leichter Regen
So, 26.05. 1:30 8.8° C leichter Regen
So, 26.05. 1:00 8.9° C leichter Regen
So, 26.05. 0:30 9.2° C leichter Regen
So, 26.05. 0:00 9.2° C leichter Regen
Sa, 25.05. 23:30 9.2° C leichter Regen
Ortszeit Relative Feuchte Sichtweite
So, 26.05. 2:00 100% 0.4 km
Sa, 25.05. 20:00 99% 5.0 km
Sa, 25.05. 14:00 57% 50 km
Sa, 25.05. 8:00 63% 30 km
Sa, 25.05. 2:00 56% 40 km
Fr, 24.05. 20:00 55% 50 km
Fr, 24.05. 14:00 48% 35 km
Fr, 24.05. 8:00 66% 15 km
Ortszeit Relative Feuchte Sichtweite
So, 26.05. 2:30 99% 28 km
So, 26.05. 2:20 99% -
So, 26.05. 2:10 99% -
So, 26.05. 2:00 100% 0.4 km
So, 26.05. 1:40 100% -
So, 26.05. 1:30 100% 0.3 km
So, 26.05. 1:00 100% 100 m
So, 26.05. 0:30 100% <100 m
So, 26.05. 0:00 100% <100 m
Sa, 25.05. 23:30 100% <100 m
Ortszeit Niederschlagsmenge Niederschlagsart
So, 26.05. 2:00 5 l/m2 in 6 Std. Regen
Sa, 25.05. 20:00 4 l/m2 in 12 Std. Regen
Sa, 25.05. 14:00 0.1 l/m2 in 6 Std. Regen
Sa, 25.05. 8:00 0.0 l/m2 in 12 Std. -
Sa, 25.05. 2:00 0.0 l/m2 in 6 Std. -
Fr, 24.05. 20:00 0.0 l/m2 in 12 Std. -
Fr, 24.05. 14:00 0.0 l/m2 in 6 Std. -
Fr, 24.05. 8:00 0.0 l/m2 in 12 Std. -
Ortszeit Niederschlagsmenge Niederschlagsart
So, 26.05. 2:30 0.2 l/m2 in 1 Std. -
So, 26.05. 2:20 keine Meldung -
So, 26.05. 2:10 keine Meldung -
So, 26.05. 2:00 0.5 l/m2 in 1 Std. Regen
So, 26.05. 1:40 keine Meldung -
So, 26.05. 1:30 0.3 l/m2 in 1 Std. -
So, 26.05. 1:00 0.9 l/m2 in 1 Std. Regen
So, 26.05. 0:30 0.5 l/m2 in 1 Std. -
So, 26.05. 0:00 1.3 l/m2 in 1 Std. Regen
Sa, 25.05. 23:30 0.6 l/m2 in 1 Std. -
Ortszeit Stärke Spitze Richtung
km/h Bft. km/h Grad Sektor
So, 26.05. 2:00 13 3 24 190° S
Sa, 25.05. 20:00 9 2 37 250° W
Sa, 25.05. 14:00 7 2 22 50° NO
Sa, 25.05. 8:00 9 2 15 280° W
Sa, 25.05. 2:00 6 1 15 140° SO
Fr, 24.05. 20:00 9 2 24 10° N
Fr, 24.05. 14:00 11 2 22 40° NO
Fr, 24.05. 8:00 4 1 11 60° NO
Ortszeit Stärke Spitze Richtung
km/h Bft. km/h Grad Sektor
So, 26.05. 2:30 9 2 15 200° S
So, 26.05. 2:20 9 2 - 200° S
So, 26.05. 2:10 11 2 - 200° S
So, 26.05. 2:00 13 3 20 190° S
So, 26.05. 1:40 14 3 - 190° S
So, 26.05. 1:30 14 3 22 200° S
So, 26.05. 1:00 14 3 22 190° S
So, 26.05. 0:30 14 3 22 190° S
So, 26.05. 0:00 14 3 25 200° S
Sa, 25.05. 23:30 17 3 24 220° SW
Ortszeit Untergrenze Bedeckung Gattung
total tief tief mittel hoch
So, 26.05. 2:00 1440 m 8/8 8/8 - - -
Sa, 25.05. 20:00 1500 m 8/8 8/8 - - -
Sa, 25.05. 14:00 1440 m 8/8 6/8 - - -
Sa, 25.05. 8:00 3300 m 4/8 3/8 - - -
Sa, 25.05. 2:00 8100 m 5/8 0/8 - - -
Fr, 24.05. 20:00 5100 m 8/8 8/8 - - -
Fr, 24.05. 14:00 8400 m 0/8 0/8 - - -
Fr, 24.05. 8:00 - 0/8 0/8 - - -
Ortszeit Bedeckungsgrad in Achtel und Wolkenuntergrenze
So, 26.05. 2:30 8(1380m)
So, 26.05. 2:20 8(1380m)
So, 26.05. 2:10 8(1410m)
So, 26.05. 2:00 8(1440m)
So, 26.05. 1:40 7(1500m)
So, 26.05. 1:30 6(1500m)
So, 26.05. 1:00 1(30m) 7(1500m)
So, 26.05. 0:30 6(<30m) 7(1500m) 7(1500m)
So, 26.05. 0:00 2(30m) 7(1500m)
Sa, 25.05. 23:30 7(1500m) 8(1500m)
Ortszeit Stationsdruck (hPa) Tendenz (hPa in 3 Std.)
So, 26.05. 2:00 905 - 0,4
Sa, 25.05. 20:00 904 + 1,2
Sa, 25.05. 14:00 903 - 0,5
Sa, 25.05. 8:00 903 + 0,7
Sa, 25.05. 2:00 903 - 0,1
Fr, 24.05. 20:00 902 - 0,3
Fr, 24.05. 14:00 903 - 0,5
Fr, 24.05. 8:00 903 - 0,2
Ortszeit Stationsdruck (hPa) Tendenz (hPa in 3 Std.)
So, 26.05. 2:30 905 - 0,4
So, 26.05. 2:20 905 keine Meldung
So, 26.05. 2:10 905 keine Meldung
So, 26.05. 2:00 905 - 0,4
So, 26.05. 1:40 905 keine Meldung
So, 26.05. 1:30 905 - 0,2
So, 26.05. 1:00 905 0,0
So, 26.05. 0:30 905 + 0,3
So, 26.05. 0:00 905 + 0,6
Sa, 25.05. 23:30 905 + 0,8
Ortszeit Schneehöhe (cm)
So, 26.05. 2:00 -
Sa, 25.05. 20:00 -
Sa, 25.05. 14:00 -
Sa, 25.05. 8:00 -
Sa, 25.05. 2:00 -
Fr, 24.05. 20:00 -
Fr, 24.05. 14:00 -
Fr, 24.05. 8:00 -
Ortszeit Schneehöhe (cm)
So, 26.05. 2:30 -
So, 26.05. 2:20 -
So, 26.05. 2:10 -
So, 26.05. 2:00 -
So, 26.05. 1:40 -
So, 26.05. 1:30 -
So, 26.05. 1:00 -
So, 26.05. 0:30 -
So, 26.05. 0:00 -
Sa, 25.05. 23:30 -
Link zu dieser Seite / Seite empfehlen

Das Wetter in ...